createdAt,value
2018-03-27T00:01:14.496Z,38.20
2018-03-27T00:03:44.550Z,38.67
2018-03-27T00:06:13.651Z,38.10
2018-03-27T00:08:43.503Z,39.87
2018-03-27T00:11:12.828Z,39.80
2018-03-27T00:13:42.782Z,42.30
2018-03-27T00:16:11.782Z,40.37
2018-03-27T00:18:40.883Z,39.00
2018-03-27T00:21:10.034Z,38.20
2018-03-27T00:23:39.892Z,37.70
2018-03-27T00:26:08.959Z,36.27
2018-03-27T00:28:49.612Z,37.47
2018-03-27T00:31:36.731Z,36.80
2018-03-27T00:34:23.544Z,38.50
2018-03-27T00:37:09.844Z,37.70
2018-03-27T00:39:56.422Z,36.33
2018-03-27T00:42:39.899Z,36.10
2018-03-27T00:45:09.404Z,36.17
2018-03-27T00:47:38.090Z,36.70
2018-03-27T00:50:07.603Z,33.17
2018-03-27T00:52:36.886Z,33.53
2018-03-27T00:55:06.742Z,34.47
2018-03-27T00:57:35.748Z,33.03
2018-03-27T01:00:05.755Z,32.97
2018-03-27T01:02:35.531Z,33.20
2018-03-27T01:05:10.382Z,33.30
2018-03-27T01:07:39.473Z,33.60
2018-03-27T01:10:08.628Z,34.23
2018-03-27T01:12:37.596Z,33.40
2018-03-27T01:15:07.708Z,32.43
2018-03-27T01:17:37.398Z,31.13
2018-03-27T01:20:06.499Z,31.90
2018-03-27T01:22:35.526Z,31.63
2018-03-27T01:25:04.952Z,33.50
2018-03-27T01:27:34.086Z,33.27
2018-03-27T01:30:03.214Z,32.50
2018-03-27T01:32:33.292Z,29.77
2018-03-27T01:35:02.503Z,30.00
2018-03-27T01:37:32.251Z,29.50
2018-03-27T01:40:01.384Z,30.40
2018-03-27T01:42:30.394Z,29.50
2018-03-27T01:44:59.475Z,29.00
2018-03-27T01:47:28.491Z,29.57
2018-03-27T01:49:58.522Z,29.23
2018-03-27T01:52:28.218Z,29.87
2018-03-27T01:54:58.250Z,29.37
2018-03-27T01:57:28.255Z,31.73
2018-03-27T01:59:58.214Z,29.80
2018-03-27T02:02:27.215Z,28.70
2018-03-27T02:04:56.479Z,30.30
2018-03-27T02:07:26.296Z,27.90
2018-03-27T02:09:56.175Z,29.83
2018-03-27T02:12:30.703Z,30.27
2018-03-27T02:15:05.365Z,27.60
2018-03-27T02:17:40.383Z,28.70
2018-03-27T02:20:16.119Z,28.13
2018-03-27T02:23:06.431Z,26.20
2018-03-27T02:25:36.462Z,27.40
2018-03-27T02:28:06.275Z,27.50
2018-03-27T02:30:36.064Z,24.87
2018-03-27T02:33:05.011Z,25.57
2018-03-27T02:35:35.131Z,25.83
2018-03-27T02:38:04.227Z,22.67
2018-03-27T02:40:33.503Z,26.17
2018-03-27T02:43:02.740Z,24.67
2018-03-27T02:45:31.866Z,24.67
2018-03-27T02:48:00.883Z,23.67
2018-03-27T02:50:30.913Z,21.97
2018-03-27T02:53:00.035Z,22.90
2018-03-27T02:55:29.210Z,23.10
2018-03-27T02:57:58.399Z,22.47
2018-03-27T03:00:28.454Z,22.47
2018-03-27T03:02:57.528Z,21.93
2018-03-27T03:05:26.760Z,20.97
2018-03-27T03:07:55.748Z,20.77
2018-03-27T03:10:24.883Z,21.27
2018-03-27T03:12:53.846Z,20.03
2018-03-27T03:15:22.971Z,19.23
2018-03-27T03:17:51.833Z,18.50
2018-03-27T03:20:21.107Z,16.77
2018-03-27T03:22:50.562Z,16.73
2018-03-27T03:25:19.835Z,17.40
2018-03-27T03:27:48.930Z,14.57
2018-03-27T03:30:18.204Z,14.17
2018-03-27T03:32:48.118Z,13.30
2018-03-27T03:35:17.994Z,12.10
2018-03-27T03:37:46.963Z,14.00
2018-03-27T03:40:15.958Z,15.37
2018-03-27T03:42:44.952Z,13.90
2018-03-27T03:45:14.083Z,15.00
2018-03-27T03:47:43.043Z,16.87
2018-03-27T03:50:12.172Z,14.97
2018-03-27T03:52:41.131Z,14.47
2018-03-27T03:55:11.731Z,16.20
2018-03-27T03:57:40.715Z,15.00
2018-03-27T04:00:09.790Z,16.30
2018-03-27T04:02:39.666Z,16.57
2018-03-27T04:05:08.738Z,15.03
2018-03-27T04:07:37.834Z,15.63
2018-03-27T04:10:08.367Z,16.20
2018-03-27T04:12:37.465Z,16.50
2018-03-27T04:15:06.695Z,18.00
2018-03-27T04:17:35.682Z,16.20
2018-03-27T04:20:04.821Z,15.33
2018-03-27T04:22:33.774Z,17.83
2018-03-27T04:25:02.967Z,15.50
2018-03-27T04:27:31.927Z,16.13
2018-03-27T04:30:01.961Z,15.43
2018-03-27T04:32:30.879Z,14.33
2018-03-27T04:35:00.150Z,14.83
2018-03-27T04:37:30.129Z,13.10
2018-03-27T04:39:59.517Z,13.13
2018-03-27T04:42:29.476Z,13.20
2018-03-27T04:44:58.923Z,12.47
2018-03-27T04:47:27.919Z,13.77
2018-03-27T04:49:57.186Z,12.90
2018-03-27T04:52:26.298Z,12.67
2018-03-27T04:54:55.419Z,12.67
2018-03-27T04:57:24.520Z,12.93
2018-03-27T04:59:53.715Z,12.50
2018-03-27T05:02:22.758Z,14.10
2018-03-27T05:04:51.843Z,12.33
2018-03-27T05:07:21.716Z,11.87
2018-03-27T05:09:51.034Z,12.67
2018-03-27T05:12:20.088Z,13.20
2018-03-27T05:14:50.112Z,11.30
2018-03-27T05:17:19.851Z,10.60
2018-03-27T05:19:48.980Z,11.33
2018-03-27T05:22:17.938Z,10.60
2018-03-27T05:24:47.071Z,10.87
2018-03-27T05:27:17.051Z,12.63
2018-03-27T05:29:46.329Z,12.43
2018-03-27T05:32:15.423Z,13.93
2018-03-27T05:34:44.655Z,12.57
2018-03-27T05:37:13.651Z,12.70
2018-03-27T05:39:42.714Z,12.90
2018-03-27T05:42:12.626Z,14.00
2018-03-27T05:44:42.515Z,13.70
2018-03-27T05:47:11.429Z,15.93
2018-03-27T05:49:40.539Z,16.03
2018-03-27T05:52:10.376Z,15.90
2018-03-27T05:54:39.650Z,15.60
2018-03-27T05:57:08.323Z,15.57
2018-03-27T05:59:38.159Z,13.90
2018-03-27T06:02:07.142Z,10.70
2018-03-27T06:04:36.353Z,10.27
2018-03-27T06:07:05.226Z,10.90
2018-03-27T06:09:34.330Z,10.57
2018-03-27T06:12:04.174Z,10.47
2018-03-27T06:14:33.447Z,11.00
2018-03-27T06:17:02.546Z,11.70
2018-03-27T06:19:32.559Z,10.73
2018-03-27T06:22:02.263Z,10.13
2018-03-27T06:24:32.295Z,12.00
2018-03-27T06:27:01.291Z,9.47
2018-03-27T06:29:30.591Z,10.40
2018-03-27T06:32:00.505Z,10.30
2018-03-27T06:34:30.387Z,10.60
2018-03-27T06:36:59.403Z,10.40
2018-03-27T06:39:28.515Z,11.67
2018-03-27T06:41:58.338Z,11.60
2018-03-27T06:44:27.631Z,9.67
2018-03-27T06:46:56.684Z,11.17
2018-03-27T06:49:25.788Z,12.10
2018-03-27T06:51:54.866Z,11.03
2018-03-27T06:54:23.880Z,11.30
2018-03-27T06:56:53.002Z,11.30
2018-03-27T06:59:22.101Z,11.27
2018-03-27T07:01:51.956Z,11.60
2018-03-27T07:04:21.223Z,11.30
2018-03-27T07:06:50.423Z,11.00
2018-03-27T07:09:20.437Z,11.37
2018-03-27T07:11:50.088Z,11.13
2018-03-27T07:14:19.175Z,11.57
2018-03-27T07:16:48.199Z,11.70
2018-03-27T07:19:17.323Z,12.00
2018-03-27T07:21:46.436Z,12.27
2018-03-27T07:24:15.827Z,12.53
2018-03-27T07:26:45.864Z,12.00
2018-03-27T07:29:15.987Z,12.40
2018-03-27T07:31:45.283Z,11.60
2018-03-27T07:34:14.446Z,12.10
2018-03-27T07:36:44.323Z,11.40
2018-03-27T07:39:13.602Z,11.53
2018-03-27T07:41:43.574Z,12.50
2018-03-27T07:44:12.914Z,12.67
2018-03-27T07:46:42.663Z,11.93
2018-03-27T07:49:11.791Z,11.43
2018-03-27T07:51:40.755Z,11.60
2018-03-27T07:54:09.746Z,11.67
2018-03-27T07:56:38.746Z,11.47
2018-03-27T07:59:08.826Z,12.97
2018-03-27T08:01:37.931Z,12.37
2018-03-27T08:04:07.127Z,13.03
2018-03-27T08:06:37.003Z,12.57
2018-03-27T08:09:07.022Z,12.60
2018-03-27T08:11:35.988Z,13.87
2018-03-27T08:14:06.079Z,12.67
2018-03-27T08:16:35.071Z,13.87
2018-03-27T08:19:05.251Z,13.70
2018-03-27T08:21:34.389Z,14.27
2018-03-27T08:24:03.641Z,15.03
2018-03-27T08:26:32.686Z,13.47
2018-03-27T08:29:01.920Z,13.97
2018-03-27T08:31:30.916Z,12.83
2018-03-27T08:34:00.071Z,11.80
2018-03-27T08:36:29.105Z,12.10
2018-03-27T08:38:58.130Z,12.30
2018-03-27T08:41:27.150Z,14.27
2018-03-27T08:43:57.094Z,14.10
2018-03-27T08:46:26.382Z,13.03
2018-03-27T08:48:55.552Z,13.27
2018-03-27T08:51:24.507Z,14.17
2018-03-27T08:53:53.638Z,13.93
2018-03-27T08:56:22.494Z,15.13
2018-03-27T08:58:51.690Z,15.23
2018-03-27T09:01:20.691Z,14.23
2018-03-27T09:03:50.703Z,14.70
2018-03-27T09:06:19.804Z,14.80
2018-03-27T09:08:48.875Z,13.97
2018-03-27T09:11:17.899Z,15.20
2018-03-27T09:13:47.171Z,15.10
2018-03-27T09:16:16.159Z,14.97
2018-03-27T09:18:45.427Z,14.90
2018-03-27T09:21:14.446Z,15.00
2018-03-27T09:23:43.551Z,14.97
2018-03-27T09:26:13.395Z,14.80
2018-03-27T09:28:42.673Z,12.73
2018-03-27T09:31:11.935Z,14.87
2018-03-27T09:33:41.067Z,13.97
2018-03-27T09:36:11.086Z,14.13
2018-03-27T09:38:40.319Z,16.17
2018-03-27T09:41:09.315Z,14.60
2018-03-27T09:43:38.442Z,14.87
2018-03-27T09:46:07.463Z,15.20
2018-03-27T09:48:36.675Z,15.20
2018-03-27T09:51:05.619Z,15.50
2018-03-27T09:53:34.671Z,15.00
2018-03-27T09:56:03.949Z,15.03
2018-03-27T09:58:34.015Z,16.80
2018-03-27T10:01:08.799Z,16.47
2018-03-27T10:03:39.134Z,16.57
2018-03-27T10:06:08.839Z,17.10
2018-03-27T10:08:37.947Z,16.53
2018-03-27T10:11:06.926Z,16.63
2018-03-27T10:13:36.043Z,15.90
2018-03-27T10:16:05.325Z,17.33
2018-03-27T10:18:34.771Z,17.33
2018-03-27T10:21:03.843Z,17.43
2018-03-27T10:23:33.143Z,17.57
2018-03-27T10:26:02.141Z,18.60
2018-03-27T10:28:31.299Z,17.63
2018-03-27T10:31:00.263Z,18.03
2018-03-27T10:33:29.223Z,17.37
2018-03-27T10:35:58.323Z,17.90
2018-03-27T10:38:27.629Z,17.53
2018-03-27T10:40:56.511Z,16.90
2018-03-27T10:43:25.579Z,18.83
2018-03-27T10:45:55.450Z,17.53
2018-03-27T10:48:24.728Z,18.60
2018-03-27T10:50:53.827Z,19.37
2018-03-27T10:53:23.870Z,19.23
2018-03-27T10:55:52.974Z,19.50
2018-03-27T10:58:22.244Z,20.50
2018-03-27T11:00:51.350Z,19.03
2018-03-27T11:03:20.604Z,19.87
2018-03-27T11:05:49.618Z,19.67
2018-03-27T11:08:19.655Z,18.90
2018-03-27T11:10:49.554Z,18.17
2018-03-27T11:13:19.523Z,18.87
2018-03-27T11:15:48.411Z,19.20
2018-03-27T11:18:18.522Z,18.00
2018-03-27T11:20:47.699Z,19.60
2018-03-27T11:23:17.898Z,17.60
2018-03-27T11:25:47.010Z,18.43
2018-03-27T11:28:16.800Z,17.40
2018-03-27T11:30:45.819Z,19.10
2018-03-27T11:33:15.670Z,18.07
2018-03-27T11:35:44.739Z,18.60
2018-03-27T11:38:14.041Z,20.33
2018-03-27T11:40:43.271Z,19.63
2018-03-27T11:43:12.300Z,19.37
2018-03-27T11:45:41.316Z,19.67
2018-03-27T11:48:11.352Z,19.20
2018-03-27T11:50:40.447Z,19.50
2018-03-27T11:53:09.747Z,19.97
2018-03-27T11:55:38.775Z,18.87
2018-03-27T11:58:08.887Z,21.40
2018-03-27T12:00:37.982Z,21.20
2018-03-27T12:03:08.249Z,20.03
2018-03-27T12:05:37.588Z,19.97
2018-03-27T12:08:06.887Z,19.57
2018-03-27T12:10:35.998Z,19.93
2018-03-27T12:13:06.003Z,21.50
2018-03-27T12:15:35.203Z,20.00
2018-03-27T12:18:04.505Z,19.73
2018-03-27T12:20:33.533Z,19.60
2018-03-27T12:23:02.660Z,21.17
2018-03-27T12:25:31.723Z,19.40
2018-03-27T12:28:00.990Z,21.70
2018-03-27T12:30:30.280Z,19.43
2018-03-27T12:32:59.594Z,22.07
2018-03-27T12:35:29.297Z,20.13
2018-03-27T12:37:58.375Z,20.63
2018-03-27T12:40:28.143Z,20.10
2018-03-27T12:42:57.622Z,22.03
2018-03-27T12:45:26.551Z,21.17
2018-03-27T12:47:56.695Z,21.40
2018-03-27T12:50:25.835Z,21.37
2018-03-27T12:52:55.063Z,22.03
2018-03-27T12:55:24.158Z,20.77
2018-03-27T12:57:53.439Z,22.30
2018-03-27T13:00:23.451Z,22.70
2018-03-27T13:02:52.575Z,19.50
2018-03-27T13:05:21.671Z,22.40
2018-03-27T13:07:50.850Z,24.03
2018-03-27T13:10:19.943Z,22.67
2018-03-27T13:12:48.938Z,23.30
2018-03-27T13:15:18.838Z,21.80
2018-03-27T13:17:48.284Z,22.90
2018-03-27T13:20:18.466Z,21.90
2018-03-27T13:22:47.779Z,22.83
2018-03-27T13:25:16.875Z,24.50
2018-03-27T13:27:46.182Z,22.03
2018-03-27T13:30:15.287Z,22.93
2018-03-27T13:32:44.479Z,24.40
2018-03-27T13:35:13.575Z,23.50
2018-03-27T13:37:42.707Z,23.00
2018-03-27T13:40:11.802Z,23.97
2018-03-27T13:42:40.927Z,23.50
2018-03-27T13:45:11.431Z,21.93
2018-03-27T13:47:40.456Z,24.53
2018-03-27T13:50:10.304Z,23.53
2018-03-27T13:52:39.612Z,24.33
2018-03-27T13:55:09.308Z,25.10
2018-03-27T13:57:38.783Z,24.13
2018-03-27T14:00:09.518Z,25.33
2018-03-27T14:02:38.759Z,23.67
2018-03-27T14:05:07.859Z,24.17
2018-03-27T14:07:37.057Z,24.00
2018-03-27T14:10:06.050Z,24.83
2018-03-27T14:12:35.048Z,26.30
2018-03-27T14:15:04.077Z,26.57
2018-03-27T14:17:33.267Z,25.80
2018-03-27T14:20:02.239Z,28.03
2018-03-27T14:22:31.467Z,26.80
2018-03-27T14:25:00.358Z,24.60
2018-03-27T14:27:29.592Z,28.00
2018-03-27T14:29:58.502Z,26.07
2018-03-27T14:32:27.614Z,31.10
2018-03-27T14:34:56.542Z,26.60
2018-03-27T14:37:25.667Z,26.37
2018-03-27T14:39:55.546Z,25.73
2018-03-27T14:42:24.726Z,27.20
2018-03-27T14:44:53.814Z,25.37
2018-03-27T14:47:23.119Z,27.37
2018-03-27T14:49:52.992Z,26.27
2018-03-27T14:52:22.259Z,26.13
2018-03-27T14:54:51.358Z,26.23
2018-03-27T14:57:20.635Z,25.13
2018-03-27T14:59:49.731Z,25.70
2018-03-27T15:02:18.927Z,24.07
2018-03-27T15:04:47.926Z,27.80
2018-03-27T15:07:17.123Z,27.80
2018-03-27T15:09:46.053Z,27.30
2018-03-27T15:12:15.246Z,25.83
2018-03-27T15:14:44.134Z,26.90
2018-03-27T15:17:13.338Z,25.47
2018-03-27T15:19:42.335Z,25.47
2018-03-27T15:22:11.464Z,26.00
2018-03-27T15:24:40.219Z,26.70
2018-03-27T15:27:09.215Z,27.20
2018-03-27T15:29:38.175Z,27.73
2018-03-27T15:32:07.339Z,26.20
2018-03-27T15:34:36.299Z,26.23
2018-03-27T15:37:05.426Z,25.03
2018-03-27T15:39:34.403Z,27.80
2018-03-27T15:42:05.210Z,27.27
2018-03-27T15:44:33.977Z,27.97
2018-03-27T15:47:03.085Z,27.53
2018-03-27T15:49:33.000Z,29.10
2018-03-27T15:52:02.711Z,28.40
2018-03-27T15:54:31.997Z,28.10
2018-03-27T15:57:01.207Z,27.53
2018-03-27T15:59:30.306Z,27.67
2018-03-27T16:01:59.610Z,29.80
2018-03-27T16:04:28.680Z,28.47
2018-03-27T16:06:58.162Z,41.50
2018-03-27T16:09:28.056Z,38.50
2018-03-27T16:11:57.330Z,69.07
2018-03-27T16:14:27.232Z,29.27
2018-03-27T16:16:56.544Z,29.30
2018-03-27T16:19:25.672Z,29.13
2018-03-27T16:21:54.563Z,28.73
2018-03-27T16:24:23.526Z,28.53
2018-03-27T16:26:52.655Z,29.63
2018-03-27T16:29:21.754Z,27.10
2018-03-27T16:31:50.923Z,30.63
2018-03-27T16:34:19.919Z,30.83
2018-03-27T16:36:49.219Z,32.70
2018-03-27T16:39:18.215Z,30.07
2018-03-27T16:41:47.448Z,31.20
2018-03-27T16:44:16.443Z,30.40
2018-03-27T16:46:45.571Z,31.40
2018-03-27T16:49:14.543Z,31.10
2018-03-27T16:51:43.798Z,30.47
2018-03-27T16:54:12.727Z,30.40
2018-03-27T16:56:41.827Z,30.53
2018-03-27T16:59:10.770Z,31.20
2018-03-27T17:01:39.948Z,29.30
2018-03-27T17:04:09.830Z,30.70
2018-03-27T17:06:38.998Z,30.30
2018-03-27T17:09:08.019Z,32.50
2018-03-27T17:11:37.296Z,29.10
2018-03-27T17:14:07.194Z,30.53
2018-03-27T17:16:36.507Z,30.73
2018-03-27T17:19:05.612Z,31.50
2018-03-27T17:21:35.323Z,31.97
2018-03-27T17:24:05.027Z,30.50
2018-03-27T17:26:34.259Z,31.13
2018-03-27T17:29:04.336Z,29.70
2018-03-27T17:31:33.651Z,28.03
2018-03-27T17:34:02.779Z,30.10
2018-03-27T17:36:31.871Z,33.10
2018-03-27T17:39:00.834Z,32.23
2018-03-27T17:41:30.147Z,33.50
2018-03-27T17:43:59.239Z,32.50
2018-03-27T17:46:29.255Z,32.70
2018-03-27T17:48:58.311Z,33.43
2018-03-27T17:51:27.684Z,32.13
2018-03-27T17:53:56.859Z,33.87
2018-03-27T17:56:26.159Z,33.93
2018-03-27T17:58:55.187Z,32.97
2018-03-27T18:01:24.282Z,32.00
2018-03-27T18:03:53.486Z,35.47
2018-03-27T18:06:22.547Z,32.10
2018-03-27T18:08:51.571Z,31.73
2018-03-27T18:11:20.643Z,32.37
2018-03-27T18:13:50.555Z,35.60
2018-03-27T18:16:20.670Z,32.07
2018-03-27T18:18:50.423Z,48.27
2018-03-27T18:21:19.559Z,38.20
2018-03-27T18:23:49.323Z,34.23
2018-03-27T18:26:18.598Z,32.70
2018-03-27T18:28:48.571Z,35.40
2018-03-27T18:31:17.844Z,32.43
2018-03-27T18:33:46.939Z,31.90
2018-03-27T18:36:16.214Z,32.80
2018-03-27T18:38:46.114Z,34.17
2018-03-27T18:41:15.428Z,36.40
2018-03-27T18:43:44.527Z,33.67
2018-03-27T18:46:13.761Z,31.27
2018-03-27T18:48:42.822Z,38.53
2018-03-27T18:51:12.027Z,43.13
2018-03-27T18:53:41.019Z,38.63
2018-03-27T18:56:10.359Z,39.23
2018-03-27T18:58:39.355Z,39.03
2018-03-27T19:01:08.546Z,36.30
2018-03-27T19:03:37.440Z,37.37
2018-03-27T19:06:06.568Z,35.30
2018-03-27T19:08:35.531Z,34.57
2018-03-27T19:11:04.655Z,38.40
2018-03-27T19:13:33.622Z,37.60
2018-03-27T19:16:02.775Z,36.63
2018-03-27T19:18:32.631Z,37.40
2018-03-27T19:21:01.804Z,38.80
2018-03-27T19:23:30.899Z,38.23
2018-03-27T19:26:00.027Z,38.70
2018-03-27T19:28:29.023Z,40.00
2018-03-27T19:30:58.113Z,38.90
2018-03-27T19:33:27.019Z,39.67
2018-03-27T19:35:56.211Z,40.27
2018-03-27T19:38:25.185Z,41.43
2018-03-27T19:40:54.345Z,44.57
2018-03-27T19:43:23.251Z,42.97
2018-03-27T19:45:52.362Z,42.67
2018-03-27T19:48:22.099Z,43.00
2018-03-27T19:50:51.375Z,44.80
2018-03-27T19:53:20.471Z,43.70
2018-03-27T19:55:49.671Z,46.30
2018-03-27T19:58:18.799Z,48.13
2018-03-27T20:00:47.827Z,44.97
2018-03-27T20:03:17.702Z,47.03
2018-03-27T20:05:46.983Z,42.40
2018-03-27T20:08:15.975Z,44.30
2018-03-27T20:10:45.685Z,44.97
2018-03-27T20:13:14.667Z,42.37
2018-03-27T20:15:43.662Z,44.97
2018-03-27T20:18:12.719Z,44.40
2018-03-27T20:20:41.773Z,45.60
2018-03-27T20:23:11.053Z,43.83
2018-03-27T20:25:40.367Z,42.00
2018-03-27T20:28:09.509Z,40.63
2018-03-27T20:30:38.875Z,41.70
2018-03-27T20:33:08.847Z,42.07
2018-03-27T20:35:38.186Z,42.77
2018-03-27T20:38:07.185Z,40.30
2018-03-27T20:40:36.486Z,42.93
2018-03-27T20:43:05.478Z,40.77
2018-03-27T20:45:34.787Z,41.10
2018-03-27T20:48:04.759Z,40.03
2018-03-27T20:50:34.027Z,40.37
2018-03-27T20:53:03.020Z,40.90
2018-03-27T20:55:32.298Z,40.90
2018-03-27T20:58:01.899Z,39.30
2018-03-27T21:00:31.263Z,42.20
2018-03-27T21:03:00.494Z,45.50
2018-03-27T21:05:29.819Z,39.50
2018-03-27T21:07:58.903Z,37.40
2018-03-27T21:10:28.210Z,40.17
2018-03-27T21:12:57.207Z,38.97
2018-03-27T21:15:26.432Z,38.80
2018-03-27T21:17:55.398Z,38.63
2018-03-27T21:20:24.767Z,39.73
2018-03-27T21:22:53.695Z,37.63
2018-03-27T21:25:22.862Z,39.07
2018-03-27T21:27:51.815Z,38.30
2018-03-27T21:30:21.019Z,37.50
2018-03-27T21:32:51.030Z,36.87
2018-03-27T21:35:20.308Z,37.17
2018-03-27T21:37:50.278Z,41.27
2018-03-27T21:40:19.519Z,39.63
2018-03-27T21:42:48.648Z,42.17
2018-03-27T21:45:17.718Z,41.13
2018-03-27T21:47:46.816Z,40.60
2018-03-27T21:50:16.995Z,42.33
2018-03-27T21:52:46.131Z,45.13
2018-03-27T21:55:15.358Z,42.13
2018-03-27T21:57:44.454Z,41.07
2018-03-27T22:00:13.631Z,41.20
2018-03-27T22:02:42.727Z,43.87
2018-03-27T22:05:12.525Z,42.50
2018-03-27T22:07:42.460Z,41.60
2018-03-27T22:10:12.578Z,40.80
2018-03-27T22:12:41.599Z,42.70
2018-03-27T22:15:10.874Z,43.23
2018-03-27T22:17:39.873Z,40.23
2018-03-27T22:20:09.099Z,39.30
2018-03-27T22:22:38.163Z,40.27
2018-03-27T22:25:07.263Z,41.33
2018-03-27T22:27:36.324Z,40.20
2018-03-27T22:30:05.518Z,38.90
2018-03-27T22:32:34.638Z,39.93
2018-03-27T22:35:03.608Z,42.37
2018-03-27T22:37:33.465Z,40.47
2018-03-27T22:40:02.767Z,41.10
2018-03-27T22:42:32.463Z,39.93
2018-03-27T22:45:01.466Z,41.57
2018-03-27T22:47:30.447Z,41.93
2018-03-27T22:49:59.458Z,41.77
2018-03-27T22:52:28.441Z,41.27
2018-03-27T22:54:57.446Z,42.17
2018-03-27T22:57:26.427Z,42.73
2018-03-27T22:59:55.435Z,42.57
2018-03-27T23:02:24.418Z,41.20
2018-03-27T23:04:53.522Z,41.40
2018-03-27T23:07:22.815Z,41.80
2018-03-27T23:09:52.128Z,43.93
2018-03-27T23:12:21.230Z,42.67
2018-03-27T23:14:50.430Z,43.07
2018-03-27T23:17:19.424Z,43.13
2018-03-27T23:19:48.722Z,43.17
2018-03-27T23:22:29.351Z,42.07
2018-03-27T23:24:58.690Z,43.43
2018-03-27T23:27:28.438Z,42.90
2018-03-27T23:29:57.330Z,44.23
2018-03-27T23:32:26.390Z,44.17
2018-03-27T23:34:56.642Z,41.40
2018-03-27T23:37:25.639Z,41.00
2018-03-27T23:39:54.915Z,41.93
2018-03-27T23:42:23.906Z,41.20
2018-03-27T23:44:53.139Z,43.17
2018-03-27T23:47:22.206Z,42.77
2018-03-27T23:49:51.234Z,43.00
2018-03-27T23:52:20.295Z,46.57
2018-03-27T23:54:49.426Z,43.60
2018-03-27T23:57:18.427Z,43.63
2018-03-27T23:59:47.451Z,42.87
